La rose des vents
Donnes mto: Semaine 01/10/07 - 07/10/07 (S 40)
Date Horaire Temp. E. Hum. E. P.atmo. Pluie Vent 1mn Direction Ensoleilleme Ev.Tr. Solaire P. de rose Temp au vent Rafales
01/10/2007 00:00 15,1 C 91 % 1023,0 hPa 0,0 l/m 0,7 km/h (0 Bft) O-NO 0,00 h 0,000 mm 0 W/m 13,6 C 15,1 C 1,2 km/h (1 Bft)
01/10/2007 01:00 14,7 C 91 % 1022,9 hPa 0,0 l/m 2,7 km/h (1 Bft) O-NO 0,00 h 0,025 mm 0 W/m 13,2 C 14,7 C 3,9 km/h (1 Bft)
01/10/2007 02:00 14,6 C 86 % 1022,9 hPa 0,0 l/m 5,6 km/h (1 Bft) O-NO 0,00 h 0,025 mm 0 W/m 12,2 C 14,6 C 8,4 km/h (2 Bft)
01/10/2007 03:00 15,2 C 76 % 1022,7 hPa 0,0 l/m 4,9 km/h (1 Bft) O-NO 0,00 h 0,025 mm 0 W/m 11,1 C 15,2 C 7,5 km/h (2 Bft)
01/10/2007 04:00 15,6 C 75 % 1022,6 hPa 0,0 l/m 3,6 km/h (1 Bft) NO 0,00 h 0,025 mm 0 W/m 11,2 C 15,6 C 5,5 km/h (1 Bft)
01/10/2007 05:00 15,3 C 76 % 1022,5 hPa 0,0 l/m 4,2 km/h (1 Bft) O-NO 0,00 h 0,025 mm 0 W/m 11,0 C 15,3 C 6,2 km/h (2 Bft)
01/10/2007 06:00 15,1 C 75 % 1022,6 hPa 0,0 l/m 6,6 km/h (2 Bft) O-NO 0,00 h 0,025 mm 0 W/m 10,7 C 15,1 C 9,8 km/h (2 Bft)
01/10/2007 07:00 15,1 C 75 % 1022,6 hPa 0,0 l/m 6,1 km/h (2 Bft) O-NO 0,05 h 0,051 mm 13 W/m 10,7 C 15,1 C 9,5 km/h (2 Bft)
01/10/2007 08:00 16,1 C 72 % 1023,0 hPa 0,0 l/m 4,5 km/h (1 Bft) NO 0,40 h 0,025 mm 81 W/m 11,0 C 16,1 C 7,2 km/h (2 Bft)
01/10/2007 09:00 18,9 C 62 % 1023,1 hPa 0,0 l/m 0,3 km/h (0 Bft) NO 1,00 h 0,076 mm 283 W/m 11,6 C 18,9 C 1,5 km/h (1 Bft)
01/10/2007 10:00 21,8 C 56 % 1023,2 hPa 0,0 l/m 1,8 km/h (1 Bft) E-SE 1,00 h 0,178 mm 438 W/m 12,5 C 21,8 C 4,0 km/h (1 Bft)
01/10/2007 11:00 23,1 C 50 % 1023,3 hPa 0,0 l/m 4,4 km/h (1 Bft) E-SE 1,00 h 0,279 mm 557 W/m 12,1 C 23,1 C 7,7 km/h (2 Bft)
01/10/2007 12:00 23,9 C 47 % 1023,0 hPa 0,0 l/m 6,3 km/h (2 Bft) SE 1,00 h 0,381 mm 630 W/m 12,0 C 23,9 C 10,9 km/h (2 Bft)
01/10/2007 13:00 24,1 C 47 % 1022,9 hPa 0,0 l/m 8,5 km/h (2 Bft) E 1,00 h 0,432 mm 650 W/m 12,1 C 24,1 C 13,6 km/h (3 Bft)
01/10/2007 14:00 24,2 C 47 % 1022,4 hPa 0,0 l/m 6,8 km/h (2 Bft) E 1,00 h 0,483 mm 614 W/m 12,0 C 24,2 C 11,2 km/h (2 Bft)
01/10/2007 15:00 23,6 C 47 % 1022,2 hPa 0,0 l/m 6,0 km/h (2 Bft) E 1,00 h 0,432 mm 512 W/m 11,7 C 23,6 C 10,3 km/h (2 Bft)
01/10/2007 16:00 23,4 C 48 % 1021,7 hPa 0,0 l/m 4,6 km/h (1 Bft) E 1,00 h 0,356 mm 392 W/m 11,7 C 23,4 C 7,9 km/h (2 Bft)
01/10/2007 17:00 22,9 C 50 % 1021,5 hPa 0,0 l/m 2,8 km/h (1 Bft) E-SE 1,00 h 0,279 mm 229 W/m 11,9 C 22,9 C 5,8 km/h (2 Bft)
01/10/2007 18:00 21,4 C 57 % 1021,4 hPa 0,0 l/m 0,6 km/h (0 Bft) E 0,57 h 0,178 mm 67 W/m 12,4 C 21,4 C 1,9 km/h (1 Bft)
01/10/2007 19:00 19,0 C 63 % 1021,5 hPa 0,0 l/m 0,0 km/h (0 Bft) N 0,05 h 0,051 mm 9 W/m 11,9 C 19,0 C 0,1 km/h (0 Bft)
01/10/2007 20:00 18,4 C 65 % 1021,5 hPa 0,0 l/m 0,7 km/h (0 Bft) E 0,00 h 0,000 mm 0 W/m 11,7 C 18,4 C 1,1 km/h (1 Bft)
01/10/2007 21:00 17,7 C 67 % 1021,4 hPa 0,0 l/m 2,2 km/h (1 Bft) NO 0,00 h 0,025 mm 0 W/m 11,5 C 17,7 C 3,9 km/h (1 Bft)
01/10/2007 22:00 17,2 C 70 % 1021,1 hPa 0,0 l/m 1,6 km/h (1 Bft) NO 0,00 h 0,051 mm 0 W/m 11,6 C 17,2 C 2,9 km/h (1 Bft)
01/10/2007 23:00 17,5 C 67 % 1020,7 hPa 0,0 l/m 6,8 km/h (2 Bft) O 0,00 h 0,025 mm 0 W/m 11,4 C 17,5 C 8,1 km/h (2 Bft)
02/10/2007 00:00 17,4 C 68 % 1020,7 hPa 0,0 l/m 4,9 km/h (1 Bft) O 0,00 h 0,051 mm 0 W/m 11,4 C 17,4 C 6,9 km/h (2 Bft)
02/10/2007 01:00 16,8 C 71 % 1020,5 hPa 0,0 l/m 7,0 km/h (2 Bft) O 0,00 h 0,051 mm 0 W/m 11,6 C 16,8 C 10,0 km/h (2 Bft)
02/10/2007 02:00 16,9 C 71 % 1020,3 hPa 0,0 l/m 10,9 km/h (2 Bft) O-NO 0,00 h 0,051 mm 0 W/m 11,7 C 16,9 C 14,9 km/h (3 Bft)
02/10/2007 03:00 17,0 C 71 % 1019,8 hPa 0,0 l/m 9,0 km/h (2 Bft) O-NO 0,00 h 0,051 mm 0 W/m 11,7 C 17,0 C 12,7 km/h (3 Bft)
02/10/2007 04:00 17,1 C 71 % 1019,6 hPa 0,0 l/m 7,8 km/h (2 Bft) O-NO 0,00 h 0,051 mm 0 W/m 11,7 C 17,1 C 11,6 km/h (2 Bft)
02/10/2007 05:00 16,5 C 72 % 1019,4 hPa 0,0 l/m 5,7 km/h (1 Bft) NO 0,00 h 0,051 mm 0 W/m 11,5 C 16,5 C 8,5 km/h (2 Bft)
02/10/2007 06:00 16,7 C 71 % 1019,3 hPa 0,0 l/m 7,1 km/h (2 Bft) NO 0,00 h 0,051 mm 0 W/m 11,5 C 16,7 C 10,4 km/h (2 Bft)
02/10/2007 07:00 16,8 C 71 % 1019,3 hPa 0,0 l/m 5,5 km/h (1 Bft) NO 0,03 h 0,051 mm 12 W/m 11,5 C 16,8 C 8,6 km/h (2 Bft)
02/10/2007 08:00 17,9 C 67 % 1019,3 hPa 0,0 l/m 3,9 km/h (1 Bft) NO 0,55 h 0,025 mm 98 W/m 11,7 C 17,9 C 6,2 km/h (2 Bft)
02/10/2007 09:00 20,8 C 58 % 1019,2 hPa 0,0 l/m 0,1 km/h (0 Bft) N-NO 1,00 h 0,076 mm 280 W/m 12,3 C 20,8 C 0,5 km/h (0 Bft)
02/10/2007 10:00 23,6 C 53 % 1019,2 hPa 0,0 l/m 2,3 km/h (1 Bft) E 1,00 h 0,178 mm 431 W/m 13,3 C 23,6 C 4,5 km/h (1 Bft)
02/10/2007 11:00 24,7 C 47 % 1019,1 hPa 0,0 l/m 6,1 km/h (2 Bft) S-SE 1,00 h 0,279 mm 544 W/m 12,7 C 24,7 C 10,0 km/h (2 Bft)
02/10/2007 12:00 25,1 C 47 % 1018,8 hPa 0,0 l/m 9,0 km/h (2 Bft) S 1,00 h 0,406 mm 609 W/m 13,1 C 25,1 C 13,8 km/h (3 Bft)
02/10/2007 13:00 25,2 C 45 % 1018,6 hPa 0,0 l/m 9,4 km/h (2 Bft) S 1,00 h 0,457 mm 632 W/m 12,5 C 25,2 C 14,8 km/h (3 Bft)
02/10/2007 14:00 25,3 C 51 % 1018,1 hPa 0,0 l/m 8,6 km/h (2 Bft) S 1,00 h 0,483 mm 601 W/m 14,2 C 25,3 C 13,6 km/h (3 Bft)
02/10/2007 15:00 24,4 C 61 % 1017,9 hPa 0,0 l/m 9,1 km/h (2 Bft) E 1,00 h 0,457 mm 515 W/m 16,4 C 24,4 C 14,0 km/h (3 Bft)
02/10/2007 16:00 23,4 C 66 % 1017,7 hPa 0,0 l/m 4,5 km/h (1 Bft) E-SE 1,00 h 0,381 mm 384 W/m 16,6 C 23,4 C 7,7 km/h (2 Bft)
02/10/2007 17:00 22,8 C 66 % 1017,5 hPa 0,0 l/m 2,3 km/h (1 Bft) E-SE 1,00 h 0,254 mm 228 W/m 16,2 C 22,8 C 4,7 km/h (1 Bft)
02/10/2007 18:00 21,2 C 74 % 1017,6 hPa 0,0 l/m 0,7 km/h (0 Bft) E-SE 0,60 h 0,152 mm 68 W/m 16,2 C 21,2 C 2,0 km/h (1 Bft)
02/10/2007 19:00 18,9 C 83 % 1017,6 hPa 0,0 l/m 0,1 km/h (0 Bft) E-SE 0,03 h 0,051 mm 8 W/m 15,8 C 18,9 C 0,3 km/h (0 Bft)
02/10/2007 20:00 17,9 C 83 % 1017,7 hPa 0,0 l/m 1,7 km/h (1 Bft) N-NO 0,00 h 0,000 mm 0 W/m 15,0 C 17,9 C 3,4 km/h (1 Bft)
02/10/2007 21:00 17,2 C 81 % 1017,8 hPa 0,0 l/m 3,7 km/h (1 Bft) NO 0,00 h 0,025 mm 0 W/m 13,9 C 17,2 C 6,3 km/h (2 Bft)
02/10/2007 22:00 17,4 C 77 % 1018,0 hPa 0,0 l/m 4,1 km/h (1 Bft) NO 0,00 h 0,025 mm 0 W/m 13,2 C 17,4 C 6,1 km/h (2 Bft)
02/10/2007 23:00 17,5 C 74 % 1017,7 hPa 0,0 l/m 4,1 km/h (1 Bft) O-NO 0,00 h 0,025 mm 0 W/m 12,9 C 17,5 C 6,1 km/h (2 Bft)
03/10/2007 00:00 17,4 C 73 % 1017,6 hPa 0,0 l/m 4,1 km/h (1 Bft) O-NO 0,00 h 0,051 mm 0 W/m 12,5 C 17,4 C 6,2 km/h (2 Bft)
03/10/2007 01:00 17,3 C 72 % 1017,6 hPa 0,0 l/m 4,3 km/h (1 Bft) O-NO 0,00 h 0,051 mm 0 W/m 12,2 C 17,3 C 5,9 km/h (2 Bft)
03/10/2007 02:00 17,6 C 70 % 1017,7 hPa 0,0 l/m 3,3 km/h (1 Bft) O-NO 0,00 h 0,051 mm 0 W/m 12,1 C 17,6 C 5,6 km/h (1 Bft)
03/10/2007 03:00 17,8 C 67 % 1017,6 hPa 0,0 l/m 3,6 km/h (1 Bft) O-NO 0,00 h 0,051 mm 0 W/m 11,7 C 17,8 C 5,6 km/h (1 Bft)
03/10/2007 04:00 17,7 C 69 % 1017,6 hPa 0,0 l/m 3,1 km/h (1 Bft) NO 0,00 h 0,051 mm 0 W/m 11,9 C 17,7 C 5,7 km/h (1 Bft)
03/10/2007 05:00 17,7 C 70 % 1017,5 hPa 0,0 l/m 4,9 km/h (1 Bft) NO 0,00 h 0,051 mm 0 W/m 12,2 C 17,7 C 7,0 km/h (2 Bft)
03/10/2007 06:00 17,7 C 70 % 1017,4 hPa 0,0 l/m 3,9 km/h (1 Bft) NO 0,00 h 0,051 mm 0 W/m 12,2 C 17,7 C 5,6 km/h (1 Bft)
03/10/2007 07:00 17,8 C 70 % 1017,6 hPa 0,0 l/m 4,9 km/h (1 Bft) O-NO 0,25 h 0,051 mm 19 W/m 12,2 C 17,8 C 6,6 km/h (2 Bft)
03/10/2007 08:00 18,2 C 69 % 1017,8 hPa 0,0 l/m 2,5 km/h (1 Bft) NO 0,75 h 0,025 mm 120 W/m 12,3 C 18,2 C 4,7 km/h (1 Bft)
03/10/2007 09:00 20,5 C 63 % 1018,2 hPa 0,0 l/m 0,6 km/h (0 Bft) NO 0,45 h 0,076 mm 209 W/m 13,2 C 20,5 C 2,2 km/h (1 Bft)
03/10/2007 10:00 22,5 C 58 % 1018,3 hPa 0,0 l/m 1,2 km/h (1 Bft) E 0,78 h 0,127 mm 292 W/m 13,8 C 22,5 C 2,7 km/h (1 Bft)
03/10/2007 11:00 23,2 C 54 % 1018,6 hPa 0,0 l/m 4,0 km/h (1 Bft) E-SE 0,87 h 0,178 mm 471 W/m 13,4 C 23,2 C 6,8 km/h (2 Bft)
03/10/2007 12:00 23,8 C 53 % 1018,6 hPa 0,0 l/m 3,4 km/h (1 Bft) E-SE 0,77 h 0,330 mm 422 W/m 13,6 C 23,8 C 6,2 km/h (2 Bft)
03/10/2007 13:00 23,4 C 54 % 1018,5 hPa 0,0 l/m 4,5 km/h (1 Bft) E-SE 0,30 h 0,279 mm 351 W/m 13,7 C 23,4 C 7,4 km/h (2 Bft)
03/10/2007 14:00 22,7 C 59 % 1018,4 hPa 0,0 l/m 2,0 km/h (1 Bft) E-SE 0,00 h 0,254 mm 157 W/m 14,3 C 22,7 C 4,0 km/h (1 Bft)
03/10/2007 15:00 21,7 C 69 % 1018,3 hPa 0,0 l/m 2,6 km/h (1 Bft) SE 0,00 h 0,102 mm 107 W/m 15,6 C 21,7 C 4,5 km/h (1 Bft)
03/10/2007 16:00 21,0 C 72 % 1018,3 hPa 0,0 l/m 2,5 km/h (1 Bft) S-SO 0,00 h 0,076 mm 74 W/m 15,7 C 21,0 C 3,8 km/h (1 Bft)
03/10/2007 17:00 20,2 C 77 % 1018,1 hPa 0,0 l/m 4,5 km/h (1 Bft) O 0,00 h 0,051 mm 59 W/m 16,1 C 20,2 C 6,3 km/h (2 Bft)
03/10/2007 18:00 20,1 C 77 % 1018,2 hPa 0,0 l/m 1,1 km/h (1 Bft) O-NO 0,00 h 0,051 mm 20 W/m 16,0 C 20,1 C 2,1 km/h (1 Bft)
03/10/2007 19:00 19,4 C 81 % 1018,6 hPa 0,0 l/m 1,3 km/h (1 Bft) O-NO 0,00 h 0,025 mm 0 W/m 16,0 C 19,4 C 2,9 km/h (1 Bft)
03/10/2007 20:00 18,6 C 83 % 1018,8 hPa 0,0 l/m 0,8 km/h (0 Bft) NE 0,00 h 0,000 mm 0 W/m 15,6 C 18,6 C 1,9 km/h (1 Bft)
03/10/2007 21:00 18,5 C 80 % 1019,3 hPa 0,0 l/m 1,5 km/h (1 Bft) N-NE 0,00 h 0,025 mm 0 W/m 14,9 C 18,5 C 2,8 km/h (1 Bft)
03/10/2007 22:00 18,2 C 78 % 1018,8 hPa 0,0 l/m 1,3 km/h (1 Bft) N 0,00 h 0,025 mm 0 W/m 14,3 C 18,2 C 2,5 km/h (1 Bft)
03/10/2007 23:00 18,3 C 76 % 1018,6 hPa 0,0 l/m 2,2 km/h (1 Bft) O 0,00 h 0,025 mm 0 W/m 14,0 C 18,3 C 3,8 km/h (1 Bft)
04/10/2007 00:00 18,2 C 76 % 1018,4 hPa 0,0 l/m 1,5 km/h (1 Bft) NO 0,00 h 0,025 mm 0 W/m 13,8 C 18,2 C 2,6 km/h (1 Bft)
04/10/2007 01:00 17,8 C 75 % 1018,5 hPa 0,0 l/m 0,9 km/h (0 Bft) NO 0,00 h 0,025 mm 0 W/m 13,3 C 17,8 C 1,6 km/h (1 Bft)
04/10/2007 02:00 18,1 C 71 % 1018,7 hPa 0,0 l/m 5,1 km/h (1 Bft) O 0,00 h 0,025 mm 0 W/m 12,9 C 18,1 C 7,0 km/h (2 Bft)
04/10/2007 03:00 18,2 C 70 % 1018,7 hPa 0,0 l/m 1,0 km/h (0 Bft) O-SO 0,00 h 0,051 mm 0 W/m 12,6 C 18,2 C 1,4 km/h (1 Bft)
04/10/2007 04:00 18,0 C 69 % 1018,9 hPa 0,0 l/m 2,4 km/h (1 Bft) NO 0,00 h 0,025 mm 0 W/m 12,2 C 18,0 C 3,6 km/h (1 Bft)
04/10/2007 05:00 17,9 C 67 % 1018,6 hPa 0,0 l/m 2,1 km/h (1 Bft) NO 0,00 h 0,051 mm 0 W/m 11,8 C 17,9 C 3,1 km/h (1 Bft)
04/10/2007 06:00 18,4 C 66 % 1018,4 hPa 0,0 l/m 3,1 km/h (1 Bft) O 0,00 h 0,051 mm 0 W/m 11,8 C 18,4 C 4,3 km/h (1 Bft)
04/10/2007 07:00 18,4 C 64 % 1018,4 hPa 0,0 l/m 3,0 km/h (1 Bft) O 0,00 h 0,051 mm 11 W/m 11,6 C 18,4 C 4,1 km/h (1 Bft)
04/10/2007 08:00 18,0 C 67 % 1018,6 hPa 0,0 l/m 0,9 km/h (0 Bft) O-NO 0,18 h 0,025 mm 70 W/m 11,7 C 18,0 C 2,3 km/h (1 Bft)
04/10/2007 09:00 19,7 C 64 % 1019,3 hPa 0,0 l/m 0,7 km/h (0 Bft) NO 0,25 h 0,051 mm 129 W/m 12,7 C 19,7 C 2,2 km/h (1 Bft)
04/10/2007 10:00 20,0 C 66 % 1019,7 hPa 0,0 l/m 2,1 km/h (1 Bft) N 0,02 h 0,076 mm 146 W/m 13,6 C 20,0 C 4,1 km/h (1 Bft)
04/10/2007 11:00 22,3 C 63 % 1019,1 hPa 0,0 l/m 4,4 km/h (1 Bft) E 0,73 h 0,102 mm 420 W/m 14,8 C 22,3 C 7,2 km/h (2 Bft)
04/10/2007 12:00 22,3 C 65 % 1018,7 hPa 0,0 l/m 4,6 km/h (1 Bft) E-NE 0,37 h 0,279 mm 364 W/m 15,5 C 22,3 C 7,1 km/h (2 Bft)
04/10/2007 13:00 23,8 C 61 % 1018,8 hPa 0,0 l/m 7,3 km/h (2 Bft) E 0,75 h 0,254 mm 505 W/m 15,7 C 23,8 C 11,8 km/h (2 Bft)
04/10/2007 14:00 22,2 C 69 % 1019,5 hPa 0,0 l/m 6,4 km/h (2 Bft) E 0,02 h 0,356 mm 279 W/m 16,3 C 22,2 C 10,2 km/h (2 Bft)
04/10/2007 15:00 22,6 C 71 % 1019,4 hPa 0,0 l/m 6,4 km/h (2 Bft) E 0,80 h 0,203 mm 422 W/m 17,0 C 22,6 C 11,0 km/h (2 Bft)
04/10/2007 16:00 22,9 C 73 % 1019,3 hPa 0,0 l/m 6,0 km/h (2 Bft) E-NE 0,97 h 0,279 mm 366 W/m 17,8 C 22,9 C 9,2 km/h (2 Bft)
04/10/2007 17:00 22,0 C 79 % 1018,8 hPa 0,0 l/m 2,5 km/h (1 Bft) E 0,97 h 0,254 mm 195 W/m 18,3 C 22,0 C 5,0 km/h (1 Bft)
04/10/2007 18:00 20,7 C 84 % 1018,7 hPa 0,0 l/m 3,0 km/h (1 Bft) E 0,45 h 0,127 mm 58 W/m 18,0 C 20,7 C 5,6 km/h (1 Bft)
04/10/2007 19:00 19,3 C 91 % 1018,8 hPa 0,0 l/m 0,6 km/h (0 Bft) E-SE 0,00 h 0,051 mm 8 W/m 17,8 C 19,3 C 1,4 km/h (1 Bft)
04/10/2007 20:00 18,7 C 93 % 1019,2 hPa 0,0 l/m 0,0 km/h (0 Bft) N 0,00 h 0,000 mm 0 W/m 17,5 C 18,7 C 0,0 km/h (0 Bft)
04/10/2007 21:00 18,3 C 93 % 1019,7 hPa 0,0 l/m 0,0 km/h (0 Bft) N 0,00 h 0,000 mm 0 W/m 17,2 C 18,3 C 0,1 km/h (0 Bft)
04/10/2007 22:00 18,3 C 94 % 1020,0 hPa 0,0 l/m 0,1 km/h (0 Bft) E-SE 0,00 h 0,000 mm 0 W/m 17,3 C 18,3 C 0,5 km/h (0 Bft)
04/10/2007 23:00 18,2 C 94 % 1019,3 hPa 0,0 l/m 0,7 km/h (0 Bft) E-SE 0,00 h 0,000 mm 0 W/m 17,3 C 18,2 C 1,5 km/h (1 Bft)
05/10/2007 00:00 18,1 C 94 % 1019,1 hPa 0,0 l/m 2,8 km/h (1 Bft) S-SE 0,00 h 0,000 mm 0 W/m 17,1 C 18,1 C 4,1 km/h (1 Bft)
05/10/2007 01:00 18,0 C 94 % 1018,6 hPa 0,0 l/m 1,0 km/h (0 Bft) S-SE 0,00 h 0,025 mm 0 W/m 17,0 C 18,0 C 2,1 km/h (1 Bft)
05/10/2007 02:00 17,7 C 94 % 1018,4 hPa 0,0 l/m 1,7 km/h (1 Bft) NO 0,00 h 0,000 mm 0 W/m 16,8 C 17,7 C 3,5 km/h (1 Bft)
05/10/2007 03:00 17,3 C 95 % 1018,6 hPa 0,0 l/m 2,0 km/h (1 Bft) O-NO 0,00 h 0,000 mm 0 W/m 16,4 C 17,3 C 3,7 km/h (1 Bft)
05/10/2007 04:00 16,8 C 95 % 1018,4 hPa 0,2 l/m 1,9 km/h (1 Bft) NO 0,00 h 0,000 mm 0 W/m 15,9 C 16,8 C 3,4 km/h (1 Bft)
05/10/2007 05:00 16,5 C 94 % 1018,1 hPa 0,0 l/m 2,1 km/h (1 Bft) NO 0,00 h 0,000 mm 0 W/m 15,6 C 16,5 C 3,3 km/h (1 Bft)
05/10/2007 06:00 16,2 C 93 % 1017,7 hPa 0,0 l/m 1,2 km/h (1 Bft) NO 0,00 h 0,000 mm 0 W/m 15,0 C 16,2 C 2,1 km/h (1 Bft)
05/10/2007 07:00 16,4 C 89 % 1018,2 hPa 0,0 l/m 1,4 km/h (1 Bft) NO 0,00 h 0,000 mm 9 W/m 14,6 C 16,4 C 2,6 km/h (1 Bft)
05/10/2007 08:00 18,0 C 78 % 1019,4 hPa 0,0 l/m 6,1 km/h (2 Bft) O-NO 0,28 h 0,000 mm 73 W/m 14,2 C 18,0 C 8,4 km/h (2 Bft)
05/10/2007 09:00 21,1 C 68 % 1019,2 hPa 0,0 l/m 3,5 km/h (1 Bft) N-NO 0,95 h 0,076 mm 226 W/m 14,9 C 21,1 C 5,9 km/h (2 Bft)
05/10/2007 10:00 22,0 C 65 % 1019,2 hPa 0,0 l/m 4,5 km/h (1 Bft) E-NE 0,50 h 0,152 mm 319 W/m 15,1 C 22,0 C 6,9 km/h (2 Bft)
05/10/2007 11:00 23,0 C 63 % 1019,1 hPa 0,0 l/m 4,9 km/h (1 Bft) SE 0,68 h 0,229 mm 449 W/m 15,7 C 23,0 C 8,0 km/h (2 Bft)
05/10/2007 12:00 23,2 C 65 % 1019,4 hPa 0,0 l/m 8,8 km/h (2 Bft) E 0,77 h 0,305 mm 512 W/m 16,4 C 23,2 C 14,0 km/h (3 Bft)
05/10/2007 13:00 22,7 C 72 % 1019,2 hPa 0,0 l/m 6,7 km/h (2 Bft) E 0,47 h 0,356 mm 382 W/m 17,4 C 22,7 C 10,2 km/h (2 Bft)
05/10/2007 14:00 22,7 C 72 % 1017,8 hPa 0,0 l/m 10,1 km/h (2 Bft) E-NE 0,30 h 0,279 mm 332 W/m 17,5 C 22,7 C 14,4 km/h (3 Bft)
05/10/2007 15:00 22,2 C 74 % 1016,7 hPa 0,0 l/m 5,2 km/h (1 Bft) E-NE 0,00 h 0,254 mm 152 W/m 17,3 C 22,2 C 8,2 km/h (2 Bft)
05/10/2007 16:00 20,9 C 84 % 1017,1 hPa 0,0 l/m 3,5 km/h (1 Bft) E-SE 0,08 h 0,127 mm 165 W/m 18,1 C 20,9 C 6,9 km/h (2 Bft)
05/10/2007 17:00 20,7 C 86 % 1017,1 hPa 0,0 l/m 3,2 km/h (1 Bft) SE 0,15 h 0,102 mm 106 W/m 18,2 C 20,7 C 5,3 km/h (1 Bft)
05/10/2007 18:00 20,2 C 88 % 1017,2 hPa 0,0 l/m 3,3 km/h (1 Bft) E 0,60 h 0,076 mm 58 W/m 18,2 C 20,2 C 5,7 km/h (1 Bft)
05/10/2007 19:00 19,6 C 91 % 1016,8 hPa 0,0 l/m 5,3 km/h (1 Bft) N-NE 0,00 h 0,051 mm 5 W/m 18,0 C 19,6 C 7,5 km/h (2 Bft)
05/10/2007 20:00 19,1 C 92 % 1017,0 hPa 0,0 l/m 2,1 km/h (1 Bft) S 0,00 h 0,025 mm 0 W/m 17,8 C 19,1 C 3,6 km/h (1 Bft)
05/10/2007 21:00 19,0 C 93 % 1016,9 hPa 0,0 l/m 1,3 km/h (1 Bft) NE 0,00 h 0,025 mm 0 W/m 17,8 C 19,0 C 2,7 km/h (1 Bft)
05/10/2007 22:00 18,8 C 93 % 1016,8 hPa 0,0 l/m 1,3 km/h (1 Bft) N 0,00 h 0,025 mm 0 W/m 17,6 C 18,8 C 2,0 km/h (1 Bft)
05/10/2007 23:00 18,1 C 93 % 1016,4 hPa 0,0 l/m 5,1 km/h (1 Bft) O-NO 0,00 h 0,025 mm 0 W/m 17,0 C 18,1 C 6,8 km/h (2 Bft)
06/10/2007 00:00 17,2 C 94 % 1016,1 hPa 0,0 l/m 1,9 km/h (1 Bft) NO 0,00 h 0,025 mm 0 W/m 16,2 C 17,2 C 3,4 km/h (1 Bft)
06/10/2007 01:00 16,8 C 94 % 1015,8 hPa 0,0 l/m 0,7 km/h (0 Bft) NO 0,00 h 0,000 mm 0 W/m 15,8 C 16,8 C 1,4 km/h (1 Bft)
06/10/2007 02:00 16,8 C 94 % 1015,4 hPa 0,0 l/m 4,6 km/h (1 Bft) O-NO 0,00 h 0,000 mm 0 W/m 15,8 C 16,8 C 6,5 km/h (2 Bft)
06/10/2007 03:00 15,9 C 92 % 1014,9 hPa 0,0 l/m 6,8 km/h (2 Bft) O-NO 0,00 h 0,025 mm 0 W/m 14,6 C 15,9 C 9,4 km/h (2 Bft)
06/10/2007 04:00 15,6 C 85 % 1014,2 hPa 0,0 l/m 9,3 km/h (2 Bft) O-NO 0,00 h 0,025 mm 0 W/m 13,1 C 15,6 C 13,2 km/h (3 Bft)
06/10/2007 05:00 15,8 C 75 % 1013,8 hPa 0,0 l/m 6,8 km/h (2 Bft) O 0,00 h 0,025 mm 0 W/m 11,5 C 15,8 C 9,2 km/h (2 Bft)
06/10/2007 06:00 15,8 C 76 % 1013,8 hPa 0,0 l/m 0,5 km/h (0 Bft) O-NO 0,00 h 0,051 mm 0 W/m 11,7 C 15,8 C 1,3 km/h (1 Bft)
06/10/2007 07:00 16,0 C 80 % 1013,7 hPa 0,0 l/m 1,8 km/h (1 Bft) O-NO 0,03 h 0,025 mm 12 W/m 12,6 C 16,0 C 2,9 km/h (1 Bft)
06/10/2007 08:00 16,4 C 81 % 1013,5 hPa 0,0 l/m 3,7 km/h (1 Bft) O-NO 0,42 h 0,025 mm 81 W/m 13,0 C 16,4 C 6,2 km/h (2 Bft)
06/10/2007 09:00 19,3 C 73 % 1013,7 hPa 0,0 l/m 1,0 km/h (0 Bft) E-NE 1,00 h 0,051 mm 261 W/m 14,2 C 19,3 C 2,0 km/h (1 Bft)
06/10/2007 10:00 20,9 C 71 % 1013,7 hPa 0,0 l/m 2,9 km/h (1 Bft) E 0,95 h 0,152 mm 398 W/m 15,5 C 20,9 C 5,2 km/h (1 Bft)
06/10/2007 11:00 22,0 C 69 % 1013,5 hPa 0,0 l/m 4,0 km/h (1 Bft) E 1,00 h 0,254 mm 533 W/m 16,0 C 22,0 C 7,0 km/h (2 Bft)
06/10/2007 12:00 23,0 C 65 % 1013,2 hPa 0,0 l/m 8,2 km/h (2 Bft) E 0,95 h 0,330 mm 586 W/m 16,1 C 23,0 C 12,8 km/h (3 Bft)
06/10/2007 13:00 22,4 C 67 % 1013,1 hPa 0,0 l/m 9,8 km/h (2 Bft) E 0,70 h 0,406 mm 430 W/m 16,0 C 22,4 C 14,8 km/h (3 Bft)
06/10/2007 14:00 22,0 C 74 % 1012,5 hPa 0,0 l/m 8,3 km/h (2 Bft) E 0,63 h 0,305 mm 443 W/m 17,2 C 22,0 C 12,8 km/h (3 Bft)
06/10/2007 15:00 21,8 C 77 % 1012,1 hPa 0,0 l/m 8,8 km/h (2 Bft) E 0,63 h 0,305 mm 385 W/m 17,6 C 21,8 C 12,3 km/h (3 Bft)
06/10/2007 16:00 21,4 C 79 % 1011,6 hPa 0,0 l/m 8,4 km/h (2 Bft) E 0,47 h 0,279 mm 268 W/m 17,5 C 21,4 C 12,1 km/h (2 Bft)
06/10/2007 17:00 21,0 C 80 % 1011,3 hPa 0,0 l/m 5,0 km/h (1 Bft) E 0,45 h 0,203 mm 150 W/m 17,4 C 21,0 C 7,5 km/h (2 Bft)
06/10/2007 18:00 19,5 C 87 % 1011,5 hPa 0,0 l/m 1,8 km/h (1 Bft) E 0,38 h 0,102 mm 40 W/m 17,2 C 19,5 C 3,6 km/h (1 Bft)
06/10/2007 19:00 19,0 C 89 % 1011,9 hPa 0,0 l/m 0,3 km/h (0 Bft) E 0,00 h 0,025 mm 5 W/m 17,2 C 19,0 C 0,8 km/h (0 Bft)
06/10/2007 20:00 18,6 C 91 % 1012,2 hPa 0,0 l/m 0,0 km/h (0 Bft) N 0,00 h 0,000 mm 0 W/m 17,0 C 18,6 C 0,0 km/h (0 Bft)
06/10/2007 21:00 18,2 C 91 % 1012,5 hPa 0,0 l/m 0,5 km/h (0 Bft) E 0,00 h 0,025 mm 0 W/m 16,7 C 18,2 C 1,0 km/h (0 Bft)
06/10/2007 22:00 18,3 C 92 % 1013,0 hPa 0,0 l/m 4,3 km/h (1 Bft) E 0,00 h 0,025 mm 0 W/m 16,9 C 18,3 C 6,0 km/h (2 Bft)
06/10/2007 23:00 17,9 C 92 % 1013,1 hPa 0,0 l/m 4,2 km/h (1 Bft) O-NO 0,00 h 0,025 mm 0 W/m 16,6 C 17,9 C 6,7 km/h (2 Bft)
07/10/2007 00:00 17,7 C 92 % 1012,3 hPa 0,0 l/m 5,2 km/h (1 Bft) O-NO 0,00 h 0,025 mm 0 W/m 16,4 C 17,7 C 7,2 km/h (2 Bft)
07/10/2007 01:00 17,3 C 91 % 1012,2 hPa 0,0 l/m 4,9 km/h (1 Bft) O-SO 0,00 h 0,025 mm 0 W/m 15,8 C 17,3 C 6,3 km/h (2 Bft)
07/10/2007 02:00 17,0 C 90 % 1012,5 hPa 0,0 l/m 3,0 km/h (1 Bft) NE 0,00 h 0,025 mm 0 W/m 15,4 C 17,0 C 4,7 km/h (1 Bft)
07/10/2007 03:00 16,4 C 91 % 1012,7 hPa 0,0 l/m 3,0 km/h (1 Bft) E-NE 0,00 h 0,025 mm 0 W/m 14,8 C 16,4 C 4,9 km/h (1 Bft)
07/10/2007 04:00 15,9 C 91 % 1012,5 hPa 0,0 l/m 3,6 km/h (1 Bft) O-NO 0,00 h 0,025 mm 0 W/m 14,5 C 15,9 C 5,4 km/h (1 Bft)
07/10/2007 05:00 16,2 C 89 % 1012,5 hPa 0,0 l/m 3,3 km/h (1 Bft) O-NO 0,00 h 0,025 mm 0 W/m 14,5 C 16,2 C 5,0 km/h (1 Bft)
07/10/2007 06:00 16,2 C 85 % 1012,8 hPa 0,0 l/m 3,3 km/h (1 Bft) NO 0,00 h 0,025 mm 0 W/m 13,7 C 16,2 C 5,1 km/h (1 Bft)
07/10/2007 07:00 16,3 C 80 % 1013,0 hPa 0,0 l/m 6,4 km/h (2 Bft) O 0,02 h 0,025 mm 9 W/m 12,8 C 16,3 C 8,3 km/h (2 Bft)
07/10/2007 08:00 17,0 C 75 % 1013,4 hPa 0,0 l/m 5,7 km/h (1 Bft) O 0,55 h 0,025 mm 81 W/m 12,4 C 17,0 C 7,1 km/h (2 Bft)
07/10/2007 09:00 19,5 C 68 % 1014,2 hPa 0,0 l/m 0,7 km/h (0 Bft) O-NO 0,73 h 0,076 mm 209 W/m 13,5 C 19,5 C 1,5 km/h (1 Bft)
07/10/2007 10:00 20,9 C 73 % 1014,3 hPa 0,0 l/m 5,0 km/h (1 Bft) S 1,00 h 0,127 mm 399 W/m 15,9 C 20,9 C 8,1 km/h (2 Bft)
07/10/2007 11:00 22,1 C 71 % 1014,3 hPa 0,0 l/m 5,6 km/h (1 Bft) S-SO 0,88 h 0,254 mm 541 W/m 16,6 C 22,1 C 9,0 km/h (2 Bft)
07/10/2007 12:00 23,4 C 68 % 1014,3 hPa 0,0 l/m 6,1 km/h (2 Bft) E-NE 0,83 h 0,330 mm 560 W/m 17,0 C 23,4 C 9,6 km/h (2 Bft)
07/10/2007 13:00 23,5 C 68 % 1013,9 hPa 0,0 l/m 14,5 km/h (3 Bft) S-SE 1,00 h 0,381 mm 659 W/m 17,2 C 23,5 C 19,8 km/h (4 Bft)
07/10/2007 14:00 22,9 C 69 % 1014,1 hPa 0,0 l/m 10,6 km/h (2 Bft) S-SE 0,90 h 0,483 mm 572 W/m 16,9 C 22,9 C 16,0 km/h (3 Bft)
07/10/2007 15:00 21,8 C 73 % 1014,3 hPa 0,0 l/m 8,0 km/h (2 Bft) S 0,33 h 0,381 mm 313 W/m 16,7 C 21,8 C 11,6 km/h (2 Bft)
07/10/2007 16:00 21,1 C 77 % 1014,4 hPa 0,0 l/m 6,4 km/h (2 Bft) S-SE 0,22 h 0,229 mm 172 W/m 16,9 C 21,1 C 9,9 km/h (2 Bft)
07/10/2007 17:00 20,4 C 79 % 1014,6 hPa 0,0 l/m 3,5 km/h (1 Bft) S 0,00 h 0,127 mm 53 W/m 16,7 C 20,4 C 5,8 km/h (2 Bft)
07/10/2007 18:00 19,8 C 80 % 1014,9 hPa 0,0 l/m 3,6 km/h (1 Bft) S 0,00 h 0,051 mm 12 W/m 16,2 C 19,8 C 5,3 km/h (1 Bft)
07/10/2007 19:00 19,4 C 79 % 1015,3 hPa 0,0 l/m 6,3 km/h (2 Bft) SO 0,00 h 0,025 mm 0 W/m 15,8 C 19,4 C 8,3 km/h (2 Bft)
07/10/2007 20:00 19,2 C 81 % 1015,5 hPa 0,0 l/m 7,8 km/h (2 Bft) O-SO 0,00 h 0,025 mm 0 W/m 15,9 C 19,2 C 10,4 km/h (2 Bft)
07/10/2007 21:00 19,1 C 80 % 1015,8 hPa 0,0 l/m 5,3 km/h (1 Bft) O-SO 0,00 h 0,051 mm 0 W/m 15,5 C 19,1 C 7,3 km/h (2 Bft)
07/10/2007 22:00 19,0 C 80 % 1016,1 hPa 0,0 l/m 5,7 km/h (1 Bft) O 0,00 h 0,025 mm 0 W/m 15,5 C 19,0 C 8,3 km/h (2 Bft)
07/10/2007 23:00 18,9 C 82 % 1016,4 hPa 0,0 l/m 7,5 km/h (2 Bft) O 0,00 h 0,025 mm 0 W/m 15,7 C 18,9 C 10,5 km/h (2 Bft)
Min-Date _ 01/10/07 02/10/07 06/10/07 - 01/10/07 - - - - 01/10/07 01/10/07 01/10/07
_ Min-Heure 01:56 13:54 17:00 - 00:01 - - - - 07:08 01:56 00:01
Minimum _ 14,4 C 43 % 1011,3 hPa - 0,0 km/h (0 Bft) - - - - 10,3 C 14,4 C 0,0 km/h (0 Bft)
Max-Date _ 02/10/07 05/10/07 01/10/07 05/10/07 07/10/07 - 01/10/07 01/10/07 06/10/07 04/10/07 02/10/07 07/10/07
_ Max-Heure 14:01 23:23 11:00 04:09 13:30 - 07:38 14:00 13:02 17:55 14:01 12:59
Maximum _ 26,1 C 96 % 1023,4 hPa 0,2 l/m 22,5 km/h
S-SE (4 Bft)
- 0,02 h 0,483 mm 858 W/m 18,9 C 26,1 C 30,6 km/h
E-NE (5 Bft)
Moyenne _ 19,4 C 74 % 1017,7 hPa #0,2 l/m 4,0 km/h (1 Bft) O-NO #48:49 h #19,187 mm 271 W/m 14,5 C 19,4 C 6,3 km/h (2 Bft)
Roquefort les pins